createdAt,value
2023-02-28T00:00:18.490Z,34.83
2023-02-28T00:02:52.550Z,25.38
2023-02-28T00:05:41.452Z,22.05
2023-02-28T00:08:22.424Z,25.08
2023-02-28T00:11:15.452Z,23.13
2023-02-28T00:13:57.474Z,20.23
2023-02-28T00:16:44.499Z,18.05
2023-02-28T00:19:24.450Z,25.00
2023-02-28T00:22:18.499Z,21.02
2023-02-28T00:25:05.455Z,23.00
2023-02-28T00:27:38.541Z,23.90
2023-02-28T00:30:27.494Z,21.17
2023-02-28T00:33:00.570Z,20.23
2023-02-28T00:35:47.574Z,22.38
2023-02-28T00:38:21.597Z,23.13
2023-02-28T00:41:12.466Z,25.30
2023-02-28T00:43:46.561Z,22.58
2023-02-28T00:46:33.469Z,24.00
2023-02-28T00:49:06.550Z,23.55
2023-02-28T00:51:53.455Z,29.98
2023-02-28T00:54:34.459Z,23.75
2023-02-28T00:57:21.500Z,23.02
2023-02-28T00:59:55.479Z,19.83
2023-02-28T01:02:42.487Z,22.85
2023-02-28T01:05:15.617Z,23.30
2023-02-28T01:08:02.482Z,21.35
2023-02-28T01:10:37.424Z,22.15
2023-02-28T01:13:24.460Z,24.00
2023-02-28T01:15:59.641Z,25.92
2023-02-28T01:18:46.471Z,20.77
2023-02-28T01:21:23.626Z,23.70
2023-02-28T01:24:11.472Z,23.20
2023-02-28T01:26:51.523Z,22.73
2023-02-28T01:29:45.461Z,25.58
2023-02-28T01:32:39.473Z,22.60
2023-02-28T01:35:35.862Z,23.95
2023-02-28T01:38:23.386Z,20.38
2023-02-28T01:40:57.597Z,26.75
2023-02-28T01:43:50.503Z,32.75
2023-02-28T01:46:30.547Z,28.42
2023-02-28T01:49:24.477Z,24.95
2023-02-28T01:52:03.546Z,28.25
2023-02-28T01:54:50.467Z,31.38
2023-02-28T01:57:28.603Z,27.45
2023-02-28T02:00:22.509Z,20.58
2023-02-28T02:03:01.596Z,25.52
2023-02-28T02:05:49.481Z,23.67
2023-02-28T02:08:30.562Z,22.00
2023-02-28T02:11:20.479Z,23.60
2023-02-28T02:14:29.579Z,22.42
2023-02-28T02:17:22.479Z,21.77
2023-02-28T02:20:30.486Z,21.25
2023-02-28T02:23:46.479Z,25.90
2023-02-28T02:26:59.596Z,22.35
2023-02-28T02:30:09.634Z,22.02
2023-02-28T02:33:18.495Z,21.10
2023-02-28T02:36:10.481Z,22.10
2023-02-28T02:39:45.497Z,22.55
2023-02-28T02:43:04.510Z,23.30
2023-02-28T02:45:53.685Z,21.02
2023-02-28T02:48:44.484Z,28.00
2023-02-28T02:51:29.050Z,21.63
2023-02-28T02:54:36.526Z,21.50
2023-02-28T02:57:25.478Z,26.23
2023-02-28T03:00:21.491Z,27.52
2023-02-28T03:03:09.488Z,22.52
2023-02-28T03:05:50.690Z,22.50
2023-02-28T03:08:43.441Z,20.58
2023-02-28T03:11:21.642Z,22.08
2023-02-28T03:14:29.505Z,20.35
2023-02-28T03:17:11.596Z,18.48
2023-02-28T03:20:16.504Z,17.80
2023-02-28T03:23:11.488Z,17.00
2023-02-28T03:26:10.541Z,17.98
2023-02-28T03:29:35.508Z,18.60
2023-02-28T03:32:22.627Z,20.40
2023-02-28T03:35:17.487Z,20.83
2023-02-28T03:37:52.741Z,18.95
2023-02-28T03:40:42.508Z,20.98
2023-02-28T03:43:22.697Z,19.23
2023-02-28T03:46:14.541Z,31.85
2023-02-28T03:49:07.525Z,25.17
2023-02-28T03:52:04.571Z,25.70
2023-02-28T03:54:59.513Z,20.98
2023-02-28T03:57:58.617Z,21.70
2023-02-28T04:00:51.511Z,26.15
2023-02-28T04:03:24.729Z,21.63
2023-02-28T04:06:14.497Z,19.83
2023-02-28T04:08:54.588Z,18.98
2023-02-28T04:11:49.526Z,18.30
2023-02-28T04:14:29.508Z,21.58
2023-02-28T04:17:23.517Z,18.63
2023-02-28T04:20:16.526Z,23.27
2023-02-28T04:23:04.522Z,19.45
2023-02-28T04:25:58.516Z,22.77
2023-02-28T04:28:45.499Z,25.55
2023-02-28T04:31:18.676Z,22.50
2023-02-28T04:34:05.520Z,19.77
2023-02-28T04:36:38.618Z,20.90
2023-02-28T04:39:25.520Z,18.27
2023-02-28T04:42:05.548Z,17.77
2023-02-28T04:44:59.550Z,18.30
2023-02-28T04:47:46.506Z,19.50
2023-02-28T04:50:19.688Z,18.58
2023-02-28T04:53:06.518Z,19.45
2023-02-28T04:55:47.534Z,22.58
2023-02-28T04:58:35.538Z,25.88
2023-02-28T05:01:14.749Z,17.95
2023-02-28T05:04:03.531Z,19.08
2023-02-28T05:06:39.799Z,18.92
2023-02-28T05:09:26.545Z,20.17
2023-02-28T05:11:59.651Z,19.42
2023-02-28T05:14:46.534Z,20.33
2023-02-28T05:17:19.673Z,18.00
2023-02-28T05:20:15.091Z,21.83
2023-02-28T05:22:49.657Z,27.35
2023-02-28T05:25:36.686Z,33.85
2023-02-28T05:28:09.747Z,23.73
2023-02-28T05:30:56.543Z,24.48
2023-02-28T05:33:36.537Z,18.77
2023-02-28T05:36:23.533Z,26.20
2023-02-28T05:38:58.626Z,22.83
2023-02-28T05:41:47.560Z,24.80
2023-02-28T05:44:20.693Z,20.92
2023-02-28T05:47:07.548Z,21.75
2023-02-28T05:49:47.544Z,21.98
2023-02-28T05:52:42.528Z,20.02
2023-02-28T05:55:22.547Z,23.42
2023-02-28T05:58:02.695Z,25.33
2023-02-28T06:00:42.552Z,20.67
2023-02-28T06:03:22.617Z,26.20
2023-02-28T06:06:02.541Z,21.25
2023-02-28T06:08:56.605Z,22.55
2023-02-28T06:11:43.538Z,28.52
2023-02-28T06:14:31.559Z,27.90
2023-02-28T06:17:18.634Z,21.30
2023-02-28T06:19:51.665Z,23.40
2023-02-28T06:22:38.560Z,32.50
2023-02-28T06:25:13.761Z,35.58
2023-02-28T06:28:01.607Z,39.20
2023-02-28T06:30:34.898Z,29.83
2023-02-28T06:33:21.579Z,33.58
2023-02-28T06:35:58.762Z,25.33
2023-02-28T06:38:45.545Z,29.48
2023-02-28T06:41:18.687Z,34.80
2023-02-28T06:44:05.555Z,28.33
2023-02-28T06:46:39.684Z,25.27
2023-02-28T06:49:26.559Z,15.40
2023-02-28T06:51:59.678Z,16.92
2023-02-28T06:54:46.571Z,22.13
2023-02-28T06:57:19.856Z,18.45
2023-02-28T07:00:19.576Z,13.88
2023-02-28T07:02:54.995Z,14.07
2023-02-28T07:05:45.569Z,14.82
2023-02-28T07:08:25.575Z,25.55
2023-02-28T07:11:19.550Z,12.43
2023-02-28T07:14:06.565Z,12.23
2023-02-28T07:16:39.675Z,14.73
2023-02-28T07:19:26.579Z,14.48
2023-02-28T07:21:59.895Z,12.50
2023-02-28T07:24:46.575Z,13.20
2023-02-28T07:27:24.796Z,12.63
2023-02-28T07:30:12.559Z,13.23
2023-02-28T07:32:45.676Z,14.15
2023-02-28T07:35:32.605Z,12.55
2023-02-28T07:38:08.451Z,13.35
2023-02-28T07:40:55.589Z,13.40
2023-02-28T07:43:28.705Z,14.75
2023-02-28T07:46:18.650Z,14.18
2023-02-28T07:48:52.795Z,14.88
2023-02-28T07:51:39.588Z,14.55
2023-02-28T07:54:19.576Z,15.82
2023-02-28T07:57:13.569Z,14.77
2023-02-28T08:00:07.593Z,15.52
2023-02-28T08:03:01.575Z,14.02
2023-02-28T08:05:48.615Z,12.73
2023-02-28T08:08:29.604Z,15.50
2023-02-28T08:11:23.595Z,14.57
2023-02-28T08:14:10.585Z,12.30
2023-02-28T08:16:44.128Z,13.65
2023-02-28T08:19:30.596Z,14.85
2023-02-28T08:22:11.586Z,17.77
2023-02-28T08:24:58.610Z,19.98
2023-02-28T08:27:38.627Z,17.10
2023-02-28T08:30:32.604Z,17.13
2023-02-28T08:33:26.595Z,17.63
2023-02-28T08:36:14.715Z,16.67
2023-02-28T08:38:47.799Z,17.55
2023-02-28T08:41:34.607Z,17.55
2023-02-28T08:44:07.765Z,17.50
2023-02-28T08:46:54.595Z,15.90
2023-02-28T08:49:27.810Z,17.48
2023-02-28T08:52:14.624Z,16.52
2023-02-28T08:54:47.785Z,16.35
2023-02-28T08:57:34.631Z,16.63
2023-02-28T09:00:15.618Z,17.00
2023-02-28T09:03:02.629Z,18.42
2023-02-28T09:05:42.592Z,17.90
2023-02-28T09:08:30.601Z,20.33
2023-02-28T09:11:11.672Z,20.08
2023-02-28T09:14:06.598Z,16.40
2023-02-28T09:16:55.032Z,16.10
2023-02-28T09:19:28.761Z,18.10
2023-02-28T09:22:15.670Z,18.92
2023-02-28T09:24:55.666Z,18.15
2023-02-28T09:27:49.605Z,19.45
2023-02-28T09:30:37.647Z,20.15
2023-02-28T09:33:10.797Z,18.33
2023-02-28T09:35:58.644Z,15.75
2023-02-28T09:38:38.606Z,18.80
2023-02-28T09:41:29.669Z,17.80
2023-02-28T09:44:04.749Z,21.67
2023-02-28T09:46:55.673Z,17.70
2023-02-28T09:49:39.610Z,18.17
2023-02-28T09:52:38.623Z,20.95
2023-02-28T09:55:46.520Z,16.45
2023-02-28T09:58:49.760Z,17.02
2023-02-28T10:01:50.774Z,14.85
2023-02-28T10:04:52.740Z,18.67
2023-02-28T10:08:16.640Z,17.25
2023-02-28T10:11:07.676Z,18.48
2023-02-28T10:14:30.642Z,17.42
2023-02-28T10:17:27.675Z,19.23
2023-02-28T10:20:18.617Z,17.38
2023-02-28T10:23:16.630Z,20.27
2023-02-28T10:25:56.817Z,16.38
2023-02-28T10:28:43.683Z,17.40
2023-02-28T10:31:26.473Z,19.73
2023-02-28T10:34:13.685Z,17.13
2023-02-28T10:36:49.787Z,19.70
2023-02-28T10:39:49.677Z,20.00
2023-02-28T10:42:39.969Z,15.27
2023-02-28T10:45:20.759Z,17.42
2023-02-28T10:48:13.681Z,16.13
2023-02-28T10:51:05.689Z,15.32
2023-02-28T10:54:07.674Z,17.20
2023-02-28T10:57:14.623Z,15.40
2023-02-28T10:59:47.842Z,16.00
2023-02-28T11:02:44.641Z,17.98
2023-02-28T11:05:49.674Z,16.33
2023-02-28T11:08:43.676Z,18.42
2023-02-28T11:11:33.745Z,17.48
2023-02-28T11:14:13.812Z,17.98
2023-02-28T11:17:02.642Z,19.85
2023-02-28T11:19:47.795Z,16.17
2023-02-28T11:22:43.674Z,15.50
2023-02-28T11:25:35.703Z,19.17
2023-02-28T11:28:47.671Z,16.75
2023-02-28T11:31:36.761Z,17.15
2023-02-28T11:34:32.850Z,19.75
2023-02-28T11:37:26.635Z,20.80
2023-02-28T11:39:59.835Z,19.75
2023-02-28T11:42:55.677Z,19.50
2023-02-28T11:45:43.931Z,19.48
2023-02-28T11:48:43.670Z,22.20
2023-02-28T11:51:34.966Z,22.20
2023-02-28T11:54:55.673Z,18.02
2023-02-28T11:58:00.644Z,20.52
2023-02-28T12:00:59.682Z,20.73
2023-02-28T12:03:48.701Z,20.35
2023-02-28T12:06:58.722Z,25.38
2023-02-28T12:10:18.698Z,20.98
2023-02-28T12:13:21.682Z,19.27
2023-02-28T12:16:29.733Z,19.05
2023-02-28T12:20:02.707Z,22.40
2023-02-28T12:23:34.788Z,20.27
2023-02-28T12:26:27.716Z,18.70
2023-02-28T12:29:45.687Z,21.42
2023-02-28T12:32:51.712Z,23.95
2023-02-28T12:35:55.717Z,22.10
2023-02-28T12:38:48.710Z,22.33
2023-02-28T12:41:36.703Z,21.88
2023-02-28T12:44:31.722Z,22.00
2023-02-28T12:47:11.876Z,20.48
2023-02-28T12:50:13.769Z,20.58
2023-02-28T12:53:00.953Z,23.45
2023-02-28T12:55:56.719Z,19.77
2023-02-28T12:59:04.705Z,22.02
2023-02-28T13:02:15.703Z,21.48
2023-02-28T13:05:01.696Z,19.95
2023-02-28T13:07:47.551Z,17.95
2023-02-28T13:10:47.727Z,20.52
2023-02-28T13:13:37.701Z,19.67
2023-02-28T13:16:31.760Z,23.00
2023-02-28T13:19:19.766Z,24.58
2023-02-28T13:21:52.791Z,26.50
2023-02-28T13:24:45.696Z,20.85
2023-02-28T13:27:29.823Z,21.27
2023-02-28T13:30:53.781Z,21.35
2023-02-28T13:33:51.686Z,20.75
2023-02-28T13:36:46.798Z,18.45
2023-02-28T13:39:42.773Z,17.45
2023-02-28T13:42:57.762Z,23.33
2023-02-28T13:45:53.813Z,20.38
2023-02-28T13:48:40.708Z,23.90
2023-02-28T13:51:59.781Z,27.85
2023-02-28T13:55:15.688Z,18.55
2023-02-28T13:58:13.901Z,21.80
2023-02-28T14:01:12.730Z,21.02
2023-02-28T14:04:15.775Z,18.83
2023-02-28T14:07:04.708Z,21.52
2023-02-28T14:09:48.889Z,24.00
2023-02-28T14:13:04.774Z,24.83
2023-02-28T14:15:49.333Z,19.80
2023-02-28T14:18:47.710Z,20.88
2023-02-28T14:21:43.782Z,21.02
2023-02-28T14:24:39.890Z,27.17
2023-02-28T14:27:34.867Z,21.92
2023-02-28T14:30:27.866Z,23.98
2023-02-28T14:33:36.760Z,21.73
2023-02-28T14:36:39.727Z,24.73
2023-02-28T14:39:21.903Z,24.83
2023-02-28T14:42:12.752Z,21.67
2023-02-28T14:44:52.760Z,20.25
2023-02-28T14:47:47.717Z,20.70
2023-02-28T14:50:41.834Z,19.15
2023-02-28T14:53:26.925Z,20.67
2023-02-28T14:56:29.118Z,22.55
2023-02-28T14:59:10.765Z,20.20
2023-02-28T15:02:04.774Z,23.48
2023-02-28T15:05:00.777Z,26.48
2023-02-28T15:07:35.175Z,24.35
2023-02-28T15:10:33.717Z,25.63
2023-02-28T15:13:19.715Z,26.17
2023-02-28T15:16:12.836Z,22.30
2023-02-28T15:19:01.721Z,23.08
2023-02-28T15:21:53.777Z,23.75
2023-02-28T15:24:57.800Z,26.27
2023-02-28T15:27:58.767Z,23.90
2023-02-28T15:30:45.782Z,23.77
2023-02-28T15:33:18.916Z,27.27
2023-02-28T15:36:24.754Z,23.90
2023-02-28T15:39:15.918Z,27.88
2023-02-28T15:42:19.796Z,31.00
2023-02-28T15:45:00.759Z,25.20
2023-02-28T15:48:02.608Z,26.98
2023-02-28T15:51:01.781Z,22.73
2023-02-28T15:53:54.336Z,26.95
2023-02-28T15:56:45.787Z,23.17
2023-02-28T15:59:31.781Z,24.23
2023-02-28T16:02:33.118Z,24.00
2023-02-28T16:05:19.807Z,21.38
2023-02-28T16:07:52.893Z,25.40
2023-02-28T16:10:39.787Z,24.92
2023-02-28T16:13:15.104Z,19.27
2023-02-28T16:16:01.787Z,26.48
2023-02-28T16:18:41.783Z,23.88
2023-02-28T16:21:35.923Z,23.75
2023-02-28T16:24:23.038Z,21.38
2023-02-28T16:26:59.904Z,23.40
2023-02-28T16:29:46.764Z,26.70
2023-02-28T16:32:23.032Z,27.17
2023-02-28T16:35:17.786Z,26.13
2023-02-28T16:38:11.788Z,22.73
2023-02-28T16:40:59.783Z,32.03
2023-02-28T16:43:33.979Z,25.60
2023-02-28T16:46:20.907Z,25.88
2023-02-28T16:48:55.013Z,29.20
2023-02-28T16:51:42.894Z,25.60
2023-02-28T16:54:15.877Z,26.23
2023-02-28T16:57:02.770Z,28.42
2023-02-28T16:59:36.917Z,30.45
2023-02-28T17:02:26.998Z,27.60
2023-02-28T17:05:06.820Z,24.27
2023-02-28T17:08:00.796Z,24.48
2023-02-28T17:10:47.828Z,31.17
2023-02-28T17:13:27.872Z,27.25
2023-02-28T17:16:34.848Z,24.73
2023-02-28T17:19:23.794Z,32.88
2023-02-28T17:25:19.903Z,33.55
2023-02-28T17:27:53.991Z,29.42
2023-02-28T17:30:41.837Z,30.30
2023-02-28T17:33:14.972Z,34.20
2023-02-28T17:36:01.845Z,28.65
2023-02-28T17:38:41.787Z,30.77
2023-02-28T17:41:37.810Z,29.98
2023-02-28T17:44:31.836Z,31.73
2023-02-28T17:47:20.898Z,34.65
2023-02-28T17:50:00.850Z,35.70
2023-02-28T17:52:54.892Z,37.67
2023-02-28T17:55:42.807Z,38.08
2023-02-28T17:58:19.637Z,39.42
2023-02-28T18:01:06.842Z,39.00
2023-02-28T18:03:40.024Z,39.25
2023-02-28T18:06:34.828Z,37.33
2023-02-28T18:09:14.881Z,39.28
2023-02-28T18:12:09.837Z,40.33
2023-02-28T18:15:04.860Z,38.80
2023-02-28T18:17:58.943Z,43.22
2023-02-28T18:20:52.860Z,39.85
2023-02-28T18:23:53.830Z,35.95
2023-02-28T18:26:47.804Z,38.50
2023-02-28T18:29:44.847Z,47.38
2023-02-28T18:32:31.892Z,45.83
2023-02-28T18:35:04.948Z,42.78
2023-02-28T18:37:51.836Z,48.13
2023-02-28T18:40:24.958Z,48.30
2023-02-28T18:43:12.845Z,57.92
2023-02-28T18:45:45.987Z,49.50
2023-02-28T18:48:32.836Z,43.80
2023-02-28T18:51:12.888Z,47.28
2023-02-28T18:53:59.886Z,36.33
2023-02-28T18:56:40.846Z,41.78
2023-02-28T18:59:34.989Z,40.40
2023-02-28T19:02:22.916Z,37.95
2023-02-28T19:04:55.972Z,41.13
2023-02-28T19:07:42.851Z,39.53
2023-02-28T19:10:17.022Z,36.80
2023-02-28T19:13:03.839Z,39.75
2023-02-28T19:15:37.004Z,35.92
2023-02-28T19:18:23.852Z,43.60
2023-02-28T19:20:56.935Z,55.97
2023-02-28T19:23:44.842Z,84.25
2023-02-28T19:26:33.898Z,76.32
2023-02-28T19:29:27.871Z,57.83
2023-02-28T19:32:14.945Z,59.00
2023-02-28T19:34:48.981Z,52.78
2023-02-28T19:37:35.830Z,47.00
2023-02-28T19:40:09.223Z,45.63
2023-02-28T19:42:56.997Z,50.22
2023-02-28T19:45:29.956Z,44.42
2023-02-28T19:48:16.834Z,40.33
2023-02-28T19:50:49.953Z,50.97
2023-02-28T19:53:37.899Z,51.78
2023-02-28T19:56:20.033Z,55.85
2023-02-28T19:59:21.763Z,55.28
2023-02-28T20:02:19.918Z,59.03
2023-02-28T20:04:58.721Z,57.38
2023-02-28T20:07:47.911Z,47.35
2023-02-28T20:10:27.836Z,43.35
2023-02-28T20:13:25.767Z,42.78
2023-02-28T20:16:15.984Z,47.60
2023-02-28T20:18:51.182Z,50.58
2023-02-28T20:21:37.890Z,49.90
2023-02-28T20:24:11.928Z,56.03
2023-02-28T20:27:03.941Z,51.88
2023-02-28T20:29:37.058Z,53.88
2023-02-28T20:32:23.916Z,51.15
2023-02-28T20:35:03.843Z,52.00
2023-02-28T20:37:50.884Z,61.45
2023-02-28T20:40:23.967Z,53.90
2023-02-28T20:43:10.854Z,54.03
2023-02-28T20:45:50.893Z,59.00
2023-02-28T20:48:45.928Z,62.65
2023-02-28T20:51:39.839Z,52.55
2023-02-28T20:54:26.841Z,57.75
2023-02-28T20:56:59.927Z,62.72
2023-02-28T20:59:47.898Z,66.88
2023-02-28T21:02:23.021Z,62.78
2023-02-28T21:05:12.887Z,57.42
2023-02-28T21:07:52.840Z,55.33
2023-02-28T21:10:39.843Z,53.95
2023-02-28T21:13:13.006Z,56.38
2023-02-28T21:15:59.961Z,48.53
2023-02-28T21:18:32.957Z,59.70
2023-02-28T21:21:22.872Z,63.92
2023-02-28T21:23:56.944Z,66.57
2023-02-28T21:26:45.939Z,50.50
2023-02-28T21:29:26.864Z,50.17
2023-02-28T21:32:13.942Z,48.85
2023-02-28T21:34:47.013Z,45.75
2023-02-28T21:37:34.001Z,57.47
2023-02-28T21:40:06.976Z,55.45
2023-02-28T21:42:53.880Z,57.30
2023-02-28T21:45:29.327Z,53.30
2023-02-28T21:48:16.855Z,45.35
2023-02-28T21:50:56.903Z,45.80
2023-02-28T21:53:51.888Z,47.85
2023-02-28T21:56:34.888Z,45.92
2023-02-28T21:59:15.869Z,38.85
2023-02-28T22:01:56.914Z,38.17
2023-02-28T22:04:51.906Z,41.50
2023-02-28T22:07:38.854Z,41.60
2023-02-28T22:10:12.887Z,44.50
2023-02-28T22:12:59.916Z,43.50
2023-02-28T22:15:32.957Z,42.35
2023-02-28T22:18:19.888Z,40.72
2023-02-28T22:21:00.977Z,38.03
2023-02-28T22:23:48.878Z,31.42
2023-02-28T22:26:28.361Z,47.72
2023-02-28T22:29:14.846Z,45.10
2023-02-28T22:31:54.890Z,53.95
2023-02-28T22:34:48.847Z,40.55
2023-02-28T22:37:42.886Z,42.20
2023-02-28T22:40:29.901Z,44.67
2023-02-28T22:43:03.006Z,39.60
2023-02-28T22:45:49.913Z,58.03
2023-02-28T22:48:32.165Z,62.22
2023-02-28T22:51:23.884Z,73.18
2023-02-28T22:53:59.075Z,88.40
2023-02-28T22:56:45.950Z,70.88
2023-02-28T22:59:21.124Z,74.18
2023-02-28T23:02:07.900Z,61.20
2023-02-28T23:04:47.887Z,59.58
2023-02-28T23:07:34.946Z,46.33
2023-02-28T23:10:18.883Z,48.55
2023-02-28T23:12:59.931Z,50.22
2023-02-28T23:15:39.891Z,50.75
2023-02-28T23:18:14.050Z,42.17
2023-02-28T23:21:03.903Z,43.80
2023-02-28T23:23:36.980Z,34.28
2023-02-28T23:26:23.885Z,39.15
2023-02-28T23:28:57.004Z,44.75
2023-02-28T23:31:43.927Z,38.90
2023-02-28T23:34:23.929Z,38.33
2023-02-28T23:37:10.880Z,45.67
2023-02-28T23:39:43.974Z,44.97
2023-02-28T23:42:30.903Z,39.90
2023-02-28T23:45:04.510Z,38.40
2023-02-28T23:47:50.961Z,44.25
2023-02-28T23:50:30.895Z,37.03
2023-02-28T23:53:17.876Z,37.10
2023-02-28T23:55:54.992Z,32.92
2023-02-28T23:58:41.890Z,33.45
